Dieringer, Washington
Current Conditions -  °F | °C
As of 6:58 PM on Thursday 18 Dec 2014 (Local Time) from KTCM Reporting Station
Light Rain Light Rain  
Wind Chill: 10°   Ceiling: 4200
Heat Index: 10°   Visibility: 10mi
Dew Point:   Wind: 10mph
Humidity: 90%   Direction: 170°S
Pressure: 29.75"   Gusts: NA
Location:  47.2018°N, 122.233°W
Report Text: KTCM 190258Z AUTO 17009KT 10SM -RA BKN042 OVC050 10/09 A2975 RMK AO2 RAE08RAB48 SLP079 P0000 60002 T01020086 55014
Loading
Personal Weather Stations






























Interactive Weather Map New forecast layout! Learn more

10-Day Weather Forecast

Advertisements
Track Severe Weather on mobile